Huron, Tennessee
Current Conditions -  °F | °C
As of 2:15 PM on Wednesday 28 Jan 2015 (Local Time) from KPVE Reporting Station
Clear Clear  
Wind Chill: 52°   Ceiling: Unl
Heat Index: 52°   Visibility: 10mi
Dew Point: 27°   Wind: 9mph
Humidity: 38%   Direction: 140°SE
Pressure: 30.22"   Gusts: NA
Location:  35.59°N, 88.53°W
Report Text: KPVE 282015Z AUTO 14008KT 10SM CLR 11/M03 A3022 RMK
Loading
Personal Weather Stations






























Interactive Weather Map New forecast layout! Learn more

10-Day Weather Forecast

Advertisements
Track Severe Weather on mobile